Enfield, New Hampshire
Current Conditions -  °F | °C
As of 6:53 AM on Thursday 23 Oct 2014 (Local Time) from KLEB Reporting Station
Overcast Overcast  
Wind Chill: 44°   Ceiling: 2800
Heat Index: 49°   Visibility: 10mi
Dew Point: 44°   Wind: 12mph
Humidity: 83%   Direction: 10°N
Pressure: 29.85"   Gusts: NA
Location:  43.65°N, 72.14°W
Report Text: KLEB 231053Z 01010KT 10SM SCT017 OVC028 09/07 A2985 RMK AO2 RAE08 SLP108 P0000 T00940067
Loading
Personal Weather Stations






























Interactive Weather Map
Tropical Storm Tracking
New forecast layout! Learn more

10-Day Weather Forecast

Advertisements
Track Severe Weather on mobile